Time;durP1;ratioP1;P1;durP2;ratioP2;P2;SDS_P1;SDS_P2;PMS_P1;PMS_P2;Temp;Humidity;BMP_temperature;BMP_pressure;BME280_temperature;BME280_humidity;BME280_pressure;Samples;Min_cycle;Max_cycle;Signal;HPM_P1;HPM_P2
2022/05/15 00:00:53;;;;;;;5.87;4.43;;;13.00;68.90;;;11.99;66.37;98267.28;5084774;28;20547;-70
2022/05/15 00:03:25;;;;;;;4.70;4.30;;;13.00;68.80;;;12.00;66.15;98250.81;5084964;28;20971;-69
2022/05/15 00:05:54;;;;;;;5.40;4.40;;;13.10;68.70;;;12.02;66.47;98261.44;5075169;28;20458;-69
2022/05/15 00:08:22;;;;;;;7.33;3.77;;;13.10;68.70;;;11.99;66.48;98261.84;5086255;28;20439;-68
2022/05/15 00:10:50;;;;;;;5.33;4.10;;;13.00;68.70;;;11.85;66.86;98253.81;5086787;28;20529;-68
2022/05/15 00:13:18;;;;;;;7.37;4.20;;;13.00;69.00;;;11.81;67.89;98270.72;5086507;28;20832;-68
2022/05/15 00:15:45;;;;;;;4.87;4.13;;;12.90;69.50;;;11.71;68.25;98265.75;5088443;28;20541;-68
2022/05/15 00:18:13;;;;;;;5.70;3.93;;;12.80;69.80;;;11.74;68.28;98270.75;5079038;28;20545;-68
2022/05/15 00:20:41;;;;;;;5.10;4.60;;;12.80;70.20;;;11.72;67.73;98267.41;5086052;28;20475;-69
2022/05/15 00:23:11;;;;;;;4.70;4.20;;;12.70;70.10;;;11.58;68.24;98267.50;5081611;28;20449;-68
2022/05/15 00:25:38;;;;;;;7.63;4.40;;;12.70;70.50;;;11.54;69.17;98273.56;5084162;28;21028;-68
2022/05/15 00:28:07;;;;;;;6.37;4.23;;;12.60;70.80;;;11.37;69.58;98270.50;5078065;28;20542;-68
2022/05/15 00:30:36;;;;;;;6.43;4.00;;;12.50;71.50;;;11.26;70.24;98266.59;5090865;28;20490;-70
2022/05/15 00:33:03;;;;;;;4.63;4.23;;;12.30;72.30;;;11.16;70.51;98262.47;5075229;28;20801;-70
2022/05/15 00:35:33;;;;;;;6.30;4.47;;;12.20;72.90;;;11.36;69.86;98268.84;5086891;28;20537;-69
2022/05/15 00:38:01;;;;;;;5.00;4.50;;;12.30;73.00;;;11.25;70.61;98264.94;5081575;28;20459;-70
2022/05/15 00:40:29;;;;;;;10.70;4.70;;;12.20;73.00;;;11.33;69.91;98270.94;5071078;28;20478;-70
2022/05/15 00:42:56;;;;;;;5.20;4.70;;;12.30;73.30;;;11.22;71.06;98268.06;5087541;28;20967;-70
2022/05/15 00:45:24;;;;;;;6.13;4.77;;;12.30;73.30;;;11.04;71.37;98273.13;5064781;28;20841;-72
2022/05/15 00:47:52;;;;;;;5.67;5.10;;;12.10;73.90;;;11.07;71.80;98265.63;5073357;28;20517;-70
2022/05/15 00:50:25;;;;;;;5.90;4.70;;;12.10;74.40;;;11.06;71.23;98272.91;5086821;28;21086;-71
2022/05/15 00:52:57;;;;;;;4.83;4.33;;;12.10;74.40;;;10.98;71.81;98265.84;5083240;28;20450;-70
2022/05/15 00:55:35;;;;;;;5.57;4.23;;;12.00;74.60;;;10.84;71.58;98265.06;5078517;28;20458;-70
2022/05/15 00:58:08;;;;;;;5.90;4.90;;;11.90;74.90;;;10.93;72.36;98271.06;5087037;28;20536;-69
2022/05/15 01:00:38;;;;;;;5.37;4.87;;;11.90;75.70;;;10.99;72.18;98269.38;5097788;28;20871;-69
2022/05/15 01:03:07;;;;;;;5.40;4.50;;;12.00;75.50;;;10.79;72.28;98258.63;5067332;28;20483;-70
2022/05/15 01:05:38;;;;;;;5.40;4.90;;;11.90;75.50;;;10.78;72.58;98263.22;5086232;28;21306;-69
2022/05/15 01:08:06;;;;;;;5.90;5.03;;;11.80;76.10;;;10.76;72.44;98271.50;5079706;28;20526;-70
2022/05/15 01:10:35;;;;;;;6.50;4.73;;;11.80;75.90;;;10.69;72.84;98268.00;5082667;28;20438;-69
2022/05/15 01:13:04;;;;;;;7.03;4.80;;;11.80;76.40;;;10.59;73.63;98270.28;5091519;28;20529;-69
2022/05/15 01:15:32;;;;;;;5.87;5.00;;;11.70;76.50;;;10.57;72.85;98234.56;5094934;28;20980;-69
2022/05/15 01:17:59;;;;;;;6.53;4.70;;;11.70;76.70;;;10.65;73.12;98263.22;5087376;28;20445;-69
2022/05/15 01:20:29;;;;;;;7.07;5.00;;;11.80;77.00;;;10.70;72.89;98258.84;5089281;28;20464;-70
2022/05/15 01:22:58;;;;;;;5.67;4.50;;;11.70;76.80;;;10.74;72.45;98265.50;5091849;28;20938;-69
2022/05/15 01:25:30;;;;;;;5.00;4.57;;;11.70;76.60;;;10.74;72.38;98256.53;5093492;28;20505;-70
2022/05/15 01:28:03;;;;;;;5.87;5.23;;;11.80;76.50;;;10.60;72.58;98247.63;5087838;28;20449;-69
2022/05/15 01:30:30;;;;;;;5.80;4.67;;;11.70;76.60;;;10.64;73.16;98262.38;5084629;28;20532;-69
2022/05/15 01:32:58;;;;;;;4.73;4.33;;;11.80;77.00;;;10.44;73.43;98247.03;5092347;28;20465;-69
2022/05/15 01:35:25;;;;;;;5.60;5.10;;;11.70;76.90;;;10.53;73.41;98260.31;5090611;28;20882;-69
2022/05/15 01:37:53;;;;;;;5.50;4.70;;;11.60;77.10;;;10.35;73.73;98259.88;5093810;28;20533;-69
2022/05/15 01:40:21;;;;;;;5.13;4.63;;;11.50;77.80;;;10.21;75.29;98258.22;5093786;28;20548;-68
2022/05/15 01:42:49;;;;;;;6.70;5.40;;;11.30;78.40;;;10.30;74.26;98250.75;5084939;28;20546;-70
2022/05/15 01:45:18;;;;;;;5.67;4.90;;;11.40;79.00;;;10.21;74.54;98259.03;5088493;28;20504;-69
2022/05/15 01:47:45;;;;;;;6.37;5.30;;;11.30;79.00;;;10.16;74.84;98256.13;5093011;28;20556;-69
2022/05/15 01:50:14;;;;;;;9.77;5.00;;;11.20;79.70;;;10.02;75.73;98260.72;5090883;28;20455;-71
2022/05/15 01:52:42;;;;;;;7.80;5.30;;;11.10;80.20;;;9.98;76.48;98258.63;5089340;28;20523;-71
2022/05/15 01:55:10;;;;;;;5.70;5.10;;;11.00;81.50;;;9.97;76.31;98263.19;5092212;28;20538;-70
2022/05/15 01:57:41;;;;;;;5.77;4.70;;;11.00;81.40;;;9.85;76.85;98262.97;5091280;28;20432;-70
2022/05/15 02:00:12;;;;;;;8.50;5.50;;;10.90;81.90;;;9.86;76.27;98263.81;5091719;28;20973;-70
2022/05/15 02:02:40;;;;;;;5.43;4.93;;;10.90;82.20;;;9.99;76.44;98261.09;5083700;28;20461;-69
2022/05/15 02:05:09;;;;;;;5.77;5.20;;;11.00;82.80;;;9.85;77.69;98257.56;5087955;28;20458;-69
2022/05/15 02:07:36;;;;;;;6.63;4.63;;;10.90;82.90;;;10.04;76.08;98260.47;5084748;28;20485;-70
2022/05/15 02:10:06;;;;;;;5.40;4.90;;;11.00;82.80;;;10.06;75.24;98267.34;5082035;28;20550;-71
2022/05/15 02:12:34;;;;;;;7.07;5.47;;;11.00;82.00;;;10.13;75.15;98261.97;5087747;28;20501;-71
2022/05/15 02:15:03;;;;;;;9.23;5.50;;;11.10;81.50;;;10.14;75.52;98251.97;5085252;28;20942;-70
2022/05/15 02:17:31;;;;;;;6.30;5.07;;;11.20;81.10;;;10.13;75.86;98256.56;5080467;28;20512;-71
2022/05/15 02:19:59;;;;;;;5.60;5.10;;;11.20;81.00;;;10.04;75.85;98263.19;5081697;28;20602;-69
2022/05/15 02:22:27;;;;;;;7.03;5.17;;;11.10;81.30;;;9.91;76.19;98248.63;5082346;28;20461;-69
2022/05/15 02:24:54;;;;;;;5.43;4.93;;;11.10;81.50;;;9.69;76.63;98241.75;5081964;28;20880;-68
2022/05/15 02:27:21;;;;;;;5.67;5.17;;;10.90;82.10;;;9.67;78.12;98251.91;5079474;28;20500;-68
2022/05/15 02:29:50;;;;;;;7.77;4.90;;;10.70;83.10;;;9.69;77.85;98257.94;5082946;28;20800;-70
2022/05/15 02:32:18;;;;;;;5.40;4.93;;;10.80;83.70;;;9.51;78.13;98248.56;5083146;28;20469;-69
2022/05/15 02:34:45;;;;;;;6.67;5.33;;;10.60;84.50;;;9.50;78.68;98252.28;5083849;28;20454;-70
2022/05/15 02:37:12;;;;;;;7.13;5.57;;;10.50;85.80;;;9.45;79.31;98257.44;5104959;27;20483;-70
2022/05/15 02:39:40;;;;;;;7.73;5.50;;;10.50;85.60;;;9.47;79.58;98263.47;5080342;28;20995;-70
2022/05/15 02:42:07;;;;;;;7.20;5.40;;;10.50;86.90;;;9.41;80.06;98259.72;5080733;28;20467;-70
2022/05/15 02:44:34;;;;;;;9.17;6.00;;;10.50;87.50;;;9.45;80.42;98252.06;5075514;28;20517;-70
2022/05/15 02:47:01;;;;;;;5.90;5.40;;;10.50;88.20;;;9.26;81.05;98262.56;5085092;28;20542;-69
2022/05/15 02:52:15;;;;;;;6.60;6.00;;;10.30;89.60;;;9.13;81.92;98268.75;5077541;28;21011;-69
2022/05/15 02:54:43;;;;;;;6.20;5.20;;;10.20;90.10;;;9.06;82.54;98266.00;5078249;28;20444;-71
2022/05/15 02:57:11;;;;;;;7.23;5.80;;;10.10;90.50;;;8.86;81.96;98238.09;5079160;28;20459;-70
2022/05/15 02:59:38;;;;;;;6.40;5.77;;;10.10;90.70;;;8.92;82.22;98245.41;5084470;28;20508;-72
2022/05/15 03:02:06;;;;;;;6.20;5.60;;;10.10;90.60;;;9.09;83.12;98263.94;5077689;28;20459;-70
2022/05/15 03:04:36;;;;;;;6.03;5.53;;;10.10;91.20;;;9.02;82.62;98269.28;5083839;28;20459;-70
2022/05/15 03:07:05;;;;;;;6.40;5.70;;;10.00;91.10;;;9.00;82.48;98265.97;5082911;28;20491;-70
2022/05/15 03:09:33;;;;;;;7.77;6.20;;;10.00;90.90;;;8.99;82.59;98267.00;5081594;28;20454;-71
2022/05/15 03:12:00;;;;;;;8.10;5.77;;;10.00;91.10;;;8.96;82.78;98268.22;5086488;28;20915;-69
2022/05/15 03:14:27;;;;;;;6.07;5.50;;;10.00;90.90;;;8.96;82.88;98262.84;5086245;28;20501;-69
2022/05/15 03:16:54;;;;;;;7.63;6.93;;;10.00;91.20;;;9.01;82.33;98259.56;5097436;28;20538;-72
2022/05/15 03:19:21;;;;;;;7.93;6.03;;;10.00;90.80;;;8.98;82.37;98265.34;5090207;28;20452;-70
2022/05/15 03:21:50;;;;;;;8.00;6.70;;;10.00;90.80;;;8.95;82.31;98258.47;5083162;28;20570;-70
2022/05/15 03:24:17;;;;;;;6.47;5.83;;;10.00;90.80;;;9.02;81.75;98267.44;5076297;28;20483;-72
2022/05/15 03:26:47;;;;;;;6.93;5.70;;;10.00;90.60;;;8.79;80.80;98190.41;5076211;28;20555;-71
2022/05/15 03:29:18;;;;;;;7.50;6.80;;;10.20;90.10;;;9.27;80.06;98261.53;5074909;28;20566;-69
2022/05/15 03:31:46;;;;;;;7.93;6.10;;;10.30;88.50;;;9.18;80.11;98262.75;5080193;28;20460;-71
2022/05/15 03:34:15;;;;;;;7.10;6.00;;;10.30;88.30;;;9.20;80.45;98268.78;5079390;28;20493;-69
2022/05/15 03:36:45;;;;;;;9.30;7.17;;;10.30;88.70;;;9.18;81.10;98274.34;5079186;28;20483;-69
2022/05/15 03:39:16;;;;;;;7.60;6.90;;;10.30;89.30;;;9.06;81.09;98268.72;5077941;28;20467;-69
2022/05/15 03:41:43;;;;;;;7.10;6.40;;;10.20;89.60;;;9.07;81.64;98259.59;5073639;28;20558;-69
2022/05/15 03:44:10;;;;;;;7.33;6.63;;;10.20;90.20;;;9.06;81.40;98262.47;5079773;28;20495;-68
2022/05/15 03:46:39;;;;;;;8.80;6.67;;;10.20;90.30;;;9.34;81.44;98275.88;5078468;28;20538;-69
2022/05/15 03:49:07;;;;;;;13.87;7.53;;;10.30;90.10;;;9.35;80.67;98276.69;5079700;28;20459;-69
2022/05/15 03:51:34;;;;;;;7.60;6.90;;;10.40;89.90;;;9.26;81.11;98267.97;5083344;28;20493;-68
2022/05/15 03:54:02;;;;;;;13.53;7.33;;;10.40;89.40;;;9.21;81.63;98282.03;5080044;28;21009;-69
2022/05/15 03:59:18;;;;;;;7.77;6.90;;;10.40;89.80;;;9.52;80.39;98266.41;5079690;28;20447;-69
2022/05/15 04:01:46;;;;;;;12.73;8.30;;;10.50;89.40;;;9.38;80.54;98278.19;5079768;28;20485;-69
2022/05/15 04:04:13;;;;;;;22.90;8.77;;;10.50;88.00;;;9.37;80.40;98274.63;5084219;28;20533;-71
2022/05/15 04:06:40;;;;;;;14.70;8.60;;;10.50;88.60;;;9.45;79.93;98271.78;5085622;28;20456;-69
2022/05/15 04:09:08;;;;;;;15.27;8.80;;;10.60;88.70;;;9.50;79.77;98271.19;5088663;28;20454;-69
2022/05/15 04:11:36;;;;;;;12.07;7.53;;;10.60;88.20;;;9.55;79.72;98265.16;5088304;28;20449;-69
2022/05/15 04:14:04;;;;;;;13.57;8.40;;;10.70;87.50;;;9.62;79.35;98274.09;5084623;28;21025;-70
2022/05/15 04:16:32;;;;;;;13.97;9.30;;;10.80;87.00;;;9.90;78.01;98273.16;5080956;28;20958;-68
2022/05/15 04:18:59;;;;;;;14.13;10.07;;;10.90;86.10;;;10.90;74.59;98276.91;5083891;28;20543;-69
2022/05/15 04:21:27;;;;;;;21.10;13.77;;;11.70;82.60;;;11.88;70.64;98272.31;5079776;28;20934;-68
2022/05/15 04:23:54;;;;;;;20.00;14.60;;;12.80;78.80;;;12.86;67.37;98273.88;5079323;28;20545;-69
2022/05/15 04:26:21;;;;;;;17.80;14.10;;;14.10;75.00;;;13.69;63.66;98276.28;5077356;28;21024;-70
2022/05/15 04:28:50;;;;;;;20.80;12.07;;;14.90;71.90;;;14.38;60.61;98275.91;5078946;28;20449;-72
2022/05/15 04:31:17;;;;;;;17.20;11.57;;;15.70;68.60;;;14.59;59.38;98266.38;5078056;28;20470;-69
2022/05/15 04:33:44;;;;;;;18.33;11.23;;;16.30;66.40;;;14.73;58.95;98271.59;5095980;27;20537;-69
2022/05/15 04:36:11;;;;;;;16.30;9.53;;;16.50;65.10;;;14.25;59.94;98271.50;5077542;28;20477;-69
2022/05/15 04:38:38;;;;;;;15.53;8.80;;;16.30;64.40;;;15.27;57.54;98271.44;5077273;28;20857;-71
2022/05/15 04:41:06;;;;;;;17.70;8.57;;;16.30;64.80;;;15.28;57.28;98278.53;5078430;28;20968;-68
2022/05/15 04:43:33;;;;;;;11.97;6.30;;;16.60;64.10;;;16.17;54.43;98282.97;5096602;28;20542;-69
2022/05/15 04:46:03;;;;;;;9.80;6.73;;;17.40;62.30;;;16.65;52.95;98261.66;5074496;28;20467;-67
2022/05/15 04:48:30;;;;;;;10.20;5.80;;;17.50;62.00;;;17.23;51.10;98270.44;5077798;28;20469;-68
2022/05/15 04:50:57;;;;;;;11.57;6.30;;;18.00;60.50;;;16.59;52.18;98279.03;5078929;28;20474;-69
2022/05/15 04:53:27;;;;;;;12.47;6.47;;;17.90;59.80;;;16.60;52.99;98280.69;5095742;28;20451;-69
2022/05/15 04:55:54;;;;;;;9.00;6.37;;;18.20;59.50;;;16.42;53.45;98277.94;5071812;28;20459;-70
2022/05/15 04:58:21;;;;;;;9.63;6.27;;;18.40;58.80;;;16.79;52.80;98278.53;5073115;28;20447;-70
2022/05/15 05:00:48;;;;;;;7.90;6.60;;;18.30;58.90;;;16.41;53.20;98284.47;5082812;28;20472;-69
2022/05/15 05:03:17;;;;;;;14.70;7.10;;;18.20;58.60;;;16.42;53.92;98290.75;5076971;28;20455;-69
2022/05/15 05:05:44;;;;;;;10.43;7.50;;;18.00;59.00;;;17.41;51.17;98279.41;5082617;28;20958;-71
2022/05/15 05:08:13;;;;;;;14.13;7.23;;;18.40;58.70;;;17.70;49.67;98284.66;5075368;28;20534;-69
2022/05/15 05:10:40;;;;;;;12.00;8.27;;;18.70;57.80;;;17.45;50.54;98280.53;5074311;28;20471;-69
2022/05/15 05:13:08;;;;;;;13.43;7.67;;;18.60;57.80;;;15.83;54.43;98287.22;5082780;28;20462;-69
2022/05/15 05:15:36;;;;;;;9.37;7.17;;;17.70;58.40;;;14.80;58.53;98290.53;5079141;28;20571;-67
2022/05/15 05:18:03;;;;;;;11.30;6.07;;;17.00;59.40;;;15.85;55.92;98292.44;5077019;28;20506;-73
2022/05/15 05:20:32;;;;;;;7.60;5.47;;;17.00;60.60;;;16.73;52.92;98290.41;5083013;28;20525;-76
2022/05/15 05:22:59;;;;;;;8.40;6.47;;;17.70;59.40;;;17.28;51.96;98297.78;5086545;28;20634;-74
2022/05/15 05:25:26;;;;;;;9.00;5.83;;;18.20;59.10;;;17.82;49.74;98247.09;5084586;28;20447;-75
2022/05/15 05:27:53;;;;;;;10.47;6.63;;;19.00;58.40;;;19.23;46.74;98290.91;5083600;28;20577;-77
2022/05/15 05:30:25;;;;;;;6.40;5.23;;;19.90;56.90;;;18.29;48.04;98285.00;5079328;28;20464;-78
2022/05/15 05:32:52;;;;;;;8.13;5.30;;;20.00;55.90;;;18.73;47.62;98292.19;5076235;28;20535;-76
2022/05/15 05:35:23;;;;;;;8.80;5.60;;;20.20;55.80;;;18.63;48.34;98291.03;5075157;28;20452;-76
2022/05/15 05:37:53;;;;;;;9.47;6.40;;;20.20;55.50;;;18.82;47.33;98296.09;5082829;28;20962;-77
2022/05/15 05:40:23;;;;;;;10.37;5.27;;;20.40;55.20;;;19.32;47.04;98293.13;5075646;28;20471;-80
2022/05/15 05:42:51;;;;;;;8.50;4.90;;;20.70;54.70;;;20.07;44.39;98297.56;5077079;28;20514;-76
2022/05/15 05:45:18;;;;;;;8.20;4.83;;;21.20;54.00;;;19.60;43.98;98296.53;5076129;28;20487;-75
2022/05/15 05:47:48;;;;;;;6.57;4.63;;;21.40;52.60;;;19.39;44.20;98300.03;5071177;28;20456;-76
2022/05/15 05:50:16;;;;;;;6.77;4.37;;;21.10;52.10;;;19.32;45.40;98295.88;5073652;28;20444;-77
2022/05/15 05:52:45;;;;;;;7.53;4.67;;;21.30;52.50;;;19.77;44.19;98294.41;5080428;28;21254;-75
2022/05/15 05:55:16;;;;;;;6.73;4.40;;;21.50;52.00;;;18.20;46.85;98301.06;5082908;28;20542;-76
2022/05/15 05:57:45;;;;;;;5.13;4.70;;;20.80;51.50;;;18.84;46.18;98302.13;5082017;28;20490;-75
2022/05/15 06:00:19;;;;;;;5.70;4.50;;;20.70;52.10;;;19.32;44.82;98304.09;5081583;28;20460;-78
2022/05/15 06:02:46;;;;;;;4.73;4.07;;;21.00;51.80;;;19.60;44.13;98307.50;5085344;28;20478;-75
2022/05/15 06:05:12;;;;;;;9.27;4.60;;;21.10;51.40;;;19.84;43.29;98310.59;5077390;28;20441;-72
2022/05/15 06:07:40;;;;;;;5.97;4.07;;;21.70;51.10;;;18.25;46.72;98310.13;5076347;28;20436;-73
2022/05/15 06:10:11;;;;;;;5.10;4.60;;;20.60;51.10;;;17.46;49.11;98309.50;5076635;28;20535;-72
2022/05/15 06:12:41;;;;;;;5.17;4.67;;;19.70;52.00;;;16.62;51.18;98314.81;5075564;28;20490;-72
2022/05/15 06:15:10;;;;;;;8.27;4.93;;;18.40;53.10;;;15.95;53.08;98309.03;5076832;28;20463;-72
2022/05/15 06:17:38;;;;;;;6.70;4.80;;;17.60;54.30;;;15.81;55.06;98307.63;5077194;28;20490;-72
2022/05/15 06:20:10;;;;;;;6.87;4.80;;;17.10;56.00;;;15.48;55.01;98307.22;5075769;28;20436;-73
2022/05/15 06:22:37;;;;;;;5.00;4.43;;;16.70;56.30;;;15.46;55.15;98312.09;5077212;28;20551;-74
2022/05/15 06:25:08;;;;;;;7.47;4.63;;;16.60;56.90;;;15.43;55.29;98309.88;5076972;28;20444;-73
2022/05/15 06:27:35;;;;;;;6.17;4.57;;;16.50;57.50;;;15.44;55.85;98303.34;5082719;28;20459;-72
2022/05/15 06:30:06;;;;;;;5.93;4.30;;;16.50;57.60;;;15.55;55.89;98302.50;5086551;28;20429;-71
2022/05/15 06:32:33;;;;;;;5.17;4.67;;;16.60;58.20;;;15.71;55.71;98298.16;5075770;28;20523;-71
2022/05/15 06:35:00;;;;;;;6.50;4.50;;;16.70;58.30;;;15.86;55.55;98299.53;5076349;28;20479;-71
2022/05/15 06:37:27;;;;;;;6.07;4.47;;;16.80;58.30;;;16.02;56.15;98300.69;5076182;28;20899;-72
2022/05/15 06:39:57;;;;;;;5.33;4.10;;;16.90;59.10;;;15.86;54.52;98248.63;5074984;28;20525;-72
2022/05/15 06:42:25;;;;;;;6.50;4.70;;;17.10;58.20;;;16.22;53.52;98291.22;5076266;28;20523;-70
2022/05/15 06:44:52;;;;;;;7.07;4.30;;;17.30;57.90;;;16.28;54.25;98295.69;5076324;28;20460;-71
2022/05/15 06:47:21;;;;;;;4.40;4.00;;;17.30;57.70;;;16.49;53.48;98294.13;5074781;28;20448;-71
2022/05/15 06:49:48;;;;;;;5.17;4.50;;;17.40;57.70;;;16.39;54.04;98292.06;5076089;28;20437;-71
2022/05/15 06:52:16;;;;;;;6.50;4.40;;;17.50;57.90;;;16.67;53.28;98294.97;5074357;28;20904;-72
2022/05/15 06:54:43;;;;;;;5.20;4.30;;;17.50;57.70;;;16.66;52.61;98299.59;5074356;28;20484;-71
2022/05/15 06:59:55;;;;;;;6.20;4.30;;;17.80;57.10;;;16.88;51.56;98295.28;5075894;28;20436;-71
2022/05/15 07:02:25;;;;;;;5.67;4.80;;;17.90;56.70;;;16.79;51.87;98300.34;5074992;28;20517;-78
2022/05/15 07:04:52;;;;;;;5.10;4.20;;;17.90;56.50;;;16.83;51.86;98301.50;5076509;28;20456;-84
2022/05/15 07:07:20;;;;;;;4.30;3.83;;;17.80;56.70;;;16.99;51.75;98306.13;5076871;28;20432;-87
2022/05/15 07:09:47;;;;;;;5.23;3.83;;;17.90;56.90;;;16.97;52.08;98285.59;5076292;28;20472;-72
2022/05/15 07:12:15;;;;;;;4.77;4.37;;;18.00;57.40;;;17.25;52.14;98295.59;5074097;28;20472;-72
2022/05/15 07:14:43;;;;;;;6.30;3.67;;;18.10;57.30;;;17.60;51.43;98292.72;5074235;28;20468;-72
2022/05/15 07:17:10;;;;;;;5.97;3.70;;;18.40;57.30;;;17.60;50.56;98293.56;5074216;28;20444;-73
2022/05/15 07:19:39;;;;;;;7.50;3.70;;;18.50;56.70;;;17.86;50.84;98306.69;5075409;28;20908;-74
2022/05/15 07:22:06;;;;;;;4.53;4.10;;;18.70;57.00;;;17.65;51.31;98304.53;5075693;28;20994;-74
2022/05/15 07:24:33;;;;;;;4.43;4.00;;;18.60;56.90;;;17.61;50.46;98305.31;5074012;28;20437;-74
2022/05/15 07:27:02;;;;;;;4.43;4.03;;;18.50;56.50;;;17.67;50.93;98294.19;5075540;28;20527;-73
2022/05/15 07:29:29;;;;;;;13.53;4.50;;;18.60;56.80;;;17.65;51.69;98303.69;5075124;28;20437;-78
2022/05/15 07:31:57;;;;;;;5.70;4.33;;;18.60;57.10;;;17.86;50.79;98293.03;5075123;28;20474;-72
2022/05/15 07:34:24;;;;;;;7.00;5.03;;;18.70;56.80;;;17.94;50.61;98289.81;5073469;28;20540;-72
2022/05/15 07:36:53;;;;;;;4.90;4.40;;;18.80;56.80;;;17.95;50.13;98294.19;5074912;28;20516;-71
2022/05/15 07:39:21;;;;;;;6.37;4.20;;;18.90;56.60;;;18.19;50.14;98291.19;5073933;28;20441;-74
2022/05/15 07:41:51;;;;;;;7.00;4.30;;;19.00;56.50;;;18.23;49.58;98289.59;5074558;28;20476;-72
2022/05/15 07:44:18;;;;;;;7.03;4.70;;;19.10;56.10;;;18.37;49.81;98284.53;5074612;28;20539;-73
2022/05/15 07:46:46;;;;;;;5.20;4.07;;;19.20;56.40;;;18.40;49.67;98284.81;5073532;28;20525;-75
2022/05/15 07:49:13;;;;;;;8.30;4.40;;;19.20;56.70;;;18.61;49.47;98284.16;5074839;28;20470;-76
2022/05/15 07:51:44;;;;;;;6.90;4.43;;;19.40;56.50;;;18.81;48.52;98278.03;5078995;28;21102;-73
2022/05/15 07:54:14;;;;;;;4.43;3.93;;;19.50;55.90;;;18.77;47.84;98293.34;5085988;28;20451;-74
2022/05/15 07:56:42;;;;;;;6.80;3.90;;;19.60;55.30;;;18.63;48.12;98285.56;5086946;28;20857;-73
2022/05/15 07:59:11;;;;;;;3.93;3.53;;;19.50;55.10;;;18.71;48.77;98288.88;5085672;28;20508;-74
2022/05/15 08:01:39;;;;;;;6.00;4.27;;;19.60;55.60;;;18.79;48.07;98285.69;5082686;28;20474;-74
2022/05/15 08:04:07;;;;;;;5.40;3.80;;;19.60;55.10;;;18.90;48.06;98281.09;5092897;28;20523;-75
2022/05/15 08:09:20;;;;;;;5.93;4.00;;;19.90;55.50;;;19.28;47.32;98279.16;5084681;28;20795;-75
2022/05/15 08:11:47;;;;;;;6.33;4.10;;;20.00;55.10;;;19.44;46.97;98271.81;5074652;28;20467;-75
2022/05/15 08:14:16;;;;;;;5.40;3.77;;;20.20;55.10;;;19.37;46.43;98274.00;5090557;28;20487;-76
2022/05/15 08:16:43;;;;;;;4.70;3.53;;;20.20;54.40;;;19.40;46.51;98278.94;5087565;28;21014;-75
2022/05/15 08:24:54;;;;;;;4.70;3.97;;;20.20;54.20;;;19.52;45.76;98279.53;5031567;28;20492;-76
2022/05/15 08:27:21;;;;;;;4.20;3.70;;;20.30;53.80;;;19.67;45.38;98275.22;5070857;28;20531;-75
2022/05/15 08:29:49;;;;;;;6.73;3.87;;;20.40;53.70;;;19.70;45.68;98274.66;5088949;28;20477;-75
2022/05/15 08:32:15;;;;;;;10.13;4.10;;;20.50;53.90;;;19.86;45.65;98271.97;5087485;28;20977;-73
2022/05/15 08:34:42;;;;;;;5.07;3.70;;;20.60;53.90;;;20.01;44.68;98266.56;5093467;28;20516;-75
2022/05/15 08:37:10;;;;;;;4.30;3.17;;;20.70;53.40;;;20.10;45.08;98270.41;5087363;28;20452;-74
2022/05/15 08:39:37;;;;;;;5.13;3.83;;;20.80;53.50;;;20.19;43.81;98272.59;5088033;28;21144;-74
2022/05/15 08:42:21;;;;;;;3.90;2.97;;;20.90;52.80;;;20.31;43.74;98269.59;5086225;28;20490;-74
2022/05/15 08:44:51;;;;;;;5.73;3.13;;;21.00;52.70;;;20.33;44.04;98262.75;5109266;28;20429;-75
2022/05/15 08:47:27;;;;;;;5.87;3.47;;;21.10;53.00;;;20.41;43.99;98257.81;5087469;28;20436;-74
2022/05/15 08:49:59;;;;;;;5.60;3.43;;;21.20;52.80;;;20.42;44.34;98264.97;5084760;28;20877;-75
2022/05/15 08:52:35;;;;;;;4.00;3.60;;;21.20;53.00;;;20.52;43.76;98268.50;5086423;28;20496;-74
2022/05/15 08:55:07;;;;;;;3.77;3.47;;;21.30;52.70;;;20.57;44.20;98272.34;5094478;28;20537;-76
2022/05/15 08:57:43;;;;;;;4.80;3.43;;;21.30;52.90;;;20.75;42.40;98255.31;5087350;28;20485;-73
2022/05/15 09:00:14;;;;;;;3.30;3.00;;;21.50;52.30;;;21.01;42.06;98257.25;5097370;28;20551;-74
2022/05/15 09:02:44;;;;;;;3.63;2.80;;;21.70;51.80;;;21.25;41.16;98259.34;5088755;28;20470;-75
2022/05/15 09:05:14;;;;;;;4.57;2.93;;;21.90;51.40;;;21.21;39.27;98254.41;5094992;28;20519;-75
2022/05/15 09:08:11;;;;;;;3.00;2.60;;;22.00;49.70;;;21.31;37.44;98259.06;5085543;28;20455;-74
2022/05/15 09:10:49;;;;;;;3.23;2.30;;;22.10;48.90;;;21.35;36.38;98259.31;5084082;28;20451;-74
2022/05/15 09:13:32;;;;;;;3.50;2.43;;;22.10;47.50;;;21.11;38.46;98259.94;5087798;28;20793;-75
2022/05/15 09:16:02;;;;;;;5.60;3.10;;;21.90;48.20;;;21.25;37.63;98259.34;5090893;28;20482;-74
2022/05/15 09:18:33;;;;;;;4.73;2.30;;;22.00;48.00;;;21.41;37.00;98255.44;5086485;28;20451;-75
2022/05/15 09:21:09;;;;;;;3.20;2.13;;;22.10;47.40;;;21.64;35.06;98250.41;5088931;28;20890;-74
2022/05/15 09:23:39;;;;;;;2.80;2.03;;;22.30;46.80;;;21.65;32.83;98252.03;5095948;28;20498;-75
2022/05/15 09:26:17;;;;;;;4.97;2.20;;;22.40;44.90;;;21.81;34.19;98249.25;5098576;28;20445;-73
2022/05/15 09:28:50;;;;;;;4.70;2.37;;;22.50;45.40;;;21.60;34.56;98206.16;5100498;28;20452;-74
2022/05/15 09:31:25;;;;;;;3.57;2.43;;;22.60;45.50;;;21.87;35.05;98243.44;5105481;28;20455;-74
2022/05/15 09:33:57;;;;;;;4.17;2.63;;;22.60;46.20;;;21.78;35.64;98236.88;5099407;28;20429;-74
2022/05/15 09:36:28;;;;;;;3.60;1.90;;;22.50;46.30;;;22.06;35.50;98245.50;5093065;28;21002;-73
2022/05/15 09:39:19;;;;;;;2.30;1.80;;;22.70;46.30;;;22.06;33.83;98243.59;5091268;28;20463;-72
2022/05/15 09:44:47;;;;;;;5.23;2.40;;;22.70;44.90;;;22.01;33.28;98242.78;5097375;28;20449;-75
2022/05/15 09:47:26;;;;;;;2.43;2.00;;;22.70;44.40;;;22.34;34.93;98232.09;5091253;28;20442;-74
2022/05/15 09:49:54;;;;;;;2.10;1.90;;;22.90;45.10;;;22.31;32.17;98250.00;5088407;28;20919;-74
2022/05/15 09:52:30;;;;;;;4.53;2.30;;;23.00;43.80;;;22.33;33.12;98242.25;5089708;28;20430;-76
2022/05/15 09:55:11;;;;;;;2.80;2.13;;;23.00;43.90;;;22.56;31.19;98237.16;5097747;28;20892;-75
2022/05/15 09:57:53;;;;;;;1.97;1.83;;;23.20;42.90;;;22.35;32.80;98231.78;5086827;28;20549;-73
2022/05/15 10:00:23;;;;;;;3.13;2.00;;;23.20;43.80;;;22.40;33.12;98227.38;5087414;28;20443;-73
2022/05/15 10:02:53;;;;;;;2.57;2.20;;;23.20;43.90;;;22.62;33.13;98230.47;5090836;28;20959;-76
2022/05/15 10:05:24;;;;;;;2.20;2.00;;;23.30;44.40;;;22.55;32.01;98227.25;5097053;28;20468;-75
2022/05/15 10:08:00;;;;;;;5.33;2.50;;;23.20;43.70;;;22.50;33.53;98222.63;5088224;28;20922;-74
2022/05/15 10:10:34;;;;;;;3.13;2.37;;;23.20;44.20;;;22.59;32.36;98221.97;5090655;28;20502;-74
2022/05/15 10:13:07;;;;;;;3.70;2.20;;;23.30;43.80;;;22.50;33.61;98224.53;5089986;28;20462;-76
2022/05/15 10:15:45;;;;;;;3.37;2.13;;;23.20;44.20;;;22.50;31.77;98230.88;5096728;28;20446;-75
2022/05/15 10:18:17;;;;;;;5.60;2.20;;;23.20;43.10;;;22.59;32.47;98217.31;5090488;28;20533;-73
2022/05/15 10:20:48;;;;;;;4.10;2.20;;;23.30;43.70;;;22.77;32.24;98231.44;5086835;28;20468;-74
2022/05/15 10:23:19;;;;;;;4.60;1.90;;;23.40;43.50;;;22.92;31.87;98216.72;5091502;28;20932;-75
2022/05/15 10:25:56;;;;;;;2.70;2.40;;;23.60;43.30;;;22.95;32.89;98204.28;5109853;28;20441;-73
2022/05/15 10:28:33;;;;;;;7.30;2.30;;;23.60;43.90;;;23.20;33.00;98212.25;5090500;28;20553;-74
2022/05/15 10:31:17;;;;;;;3.90;2.10;;;23.80;44.30;;;22.99;33.28;98199.84;5088597;28;20547;-75
2022/05/15 10:33:48;;;;;;;2.93;2.57;;;23.70;44.10;;;22.84;33.60;98187.03;5080650;28;20453;-76
2022/05/15 10:36:36;;;;;;;3.97;2.40;;;23.60;44.40;;;23.29;32.32;98197.84;5077233;28;20503;-74
2022/05/15 10:39:14;;;;;;;3.63;2.30;;;23.90;44.40;;;23.20;31.99;98195.72;5088670;28;20942;-74
2022/05/15 10:41:53;;;;;;;5.90;2.60;;;24.00;43.60;;;23.34;31.91;98184.00;5090528;28;20529;-74
2022/05/15 10:44:41;;;;;;;3.00;2.40;;;24.00;43.70;;;23.13;32.72;98188.91;5094769;28;20981;-75
2022/05/15 10:47:14;;;;;;;3.23;2.20;;;24.00;43.90;;;23.30;32.40;98188.47;5088045;28;20475;-75
2022/05/15 10:50:12;;;;;;;2.70;2.50;;;24.00;43.80;;;23.18;32.58;98186.09;5100686;28;20918;-75